^^

..:: Storico WU ::..




Lo storico viene creato da WUnderground con i dati che la stazione Meteomincio invia al loro server. L' aggiornamento viene fatto ogni 5 minuti circa, tuttavia possono esserci intervalli pi¨ ampi a causa di errori, interruzioni di servizio o problemi nell' invio tramite FTP.


Storico stazione MeteoMincio
Giorno Sommario per Agosto 15, 2022 Unità:  Inglese    Metrico   Entrambi
Giorno Settimana Mese Anno
  Max: Min: Media:
Temperatura: 87.8 °F 68.9 °F 78.6 °F
Dew Point: 67.5 °F 61.9 °F 65.1 °F
Umidità: 85.7% 45.6% 65%
Velocità vento: 11.7mph 0mph 2.4mph
Raffica: 22mph - -
Direzione- - South
Pressione: 29.7 in 29.6 in -
Precipitazioni: 0 in    
 
 
Tabulato Dati per Agosto 15, 2022
Ora Temperatura Dew Point Pressione Direzione Velocità vento Raffica Umidità Intensità pioggia (oraria) Info solare Situazione
00:04 76.6 °F 65.5 °F 29.7 in West 1.6 mph 3.5 mph 68.7% 0 in 0 W/m2
00:09 76.6 °F 64.9 °F 29.7 in West 1.5 mph 3.5 mph 67.2% 0 in 0 W/m2
00:14 76.8 °F 64.8 °F 29.7 in West 2 mph 3.5 mph 66.5% 0 in 0 W/m2
00:19 76.6 °F 64.9 °F 29.7 in West 2.2 mph 3.5 mph 67.3% 0 in 0 W/m2
00:24 76.1 °F 65.5 °F 29.7 in West 1.9 mph 3.5 mph 69.5% 0 in 0 W/m2
00:29 75.9 °F 65.5 °F 29.7 in West 1.7 mph 3.5 mph 70% 0 in 0 W/m2
00:34 75.9 °F 65.1 °F 29.7 in West 1.6 mph 3 mph 69.5% 0 in 0 W/m2
00:39 75.7 °F 64.8 °F 29.7 in West 1.9 mph 3.5 mph 68.5% 0 in 0 W/m2
00:44 75.6 °F 64.6 °F 29.7 in West 2 mph 3.5 mph 68.8% 0 in 0 W/m2
00:49 75.2 °F 64.6 °F 29.7 in West 1.6 mph 3.5 mph 69.6% 0 in 0 W/m2
00:54 75 °F 64.6 °F 29.7 in West 0.7 mph 3 mph 70% 0 in 0 W/m2
00:59 74.8 °F 64.8 °F 29.7 in West 0.1 mph 1.2 mph 70.6% 0 in 0 W/m2
01:04 74.7 °F 64.8 °F 29.7 in WSW 0.6 mph 2.3 mph 71.4% 0 in 0 W/m2
01:09 74.3 °F 64.8 °F 29.7 in SW 0.7 mph 2.3 mph 72.3% 0 in 0 W/m2
01:14 73.8 °F 64.6 °F 29.7 in SSW 0.9 mph 2.3 mph 73.4% 0 in 0 W/m2
01:19 73 °F 64.8 °F 29.7 in SSE 1.2 mph 2.3 mph 75% 0 in 0 W/m2
01:24 72.5 °F 64.9 °F 29.7 in SE 1.1 mph 3.5 mph 77% 0 in 0 W/m2
01:29 72.5 °F 64.9 °F 29.7 in SSE 0.9 mph 3 mph 76.9% 0 in 0 W/m2
01:34 72.7 °F 65.1 °F 29.7 in SSW 2.1 mph 3.5 mph 77% 0 in 0 W/m2
01:39 72.9 °F 65.1 °F 29.7 in South 2 mph 3.5 mph 76.8% 0 in 0 W/m2
01:44 72.9 °F 65.1 °F 29.7 in SSW 1.2 mph 3 mph 76.6% 0 in 0 W/m2
01:49 72.9 °F 64.9 °F 29.7 in SSW 0.6 mph 2.3 mph 76.2% 0 in 0 W/m2
01:54 72.9 °F 64.9 °F 29.7 in Calm   2 mph 76.2% 0 in 0 W/m2
01:59 72.9 °F 65.1 °F 29.7 in Calm     76.9% 0 in 0 W/m2
02:04 72.5 °F 64.9 °F 29.7 in SSW 0.5 mph 2.3 mph 77% 0 in 0 W/m2
02:09 72.3 °F 64.9 °F 29.7 in SSW 0.3 mph 2 mph 77.5% 0 in 0 W/m2
02:14 72.5 °F 65.1 °F 29.7 in Calm   1.2 mph 77.8% 0 in 0 W/m2
02:19 72.5 °F 65.1 °F 29.7 in SW 0.2 mph 1.2 mph 78% 0 in 0 W/m2
02:24 72.5 °F 65.1 °F 29.7 in SW 0.5 mph 1.2 mph 78% 0 in 0 W/m2
02:29 72.3 °F 65.1 °F 29.7 in SW 1.2 mph 2.3 mph 78% 0 in 0 W/m2
02:34 72.1 °F 64.9 °F 29.7 in SW 1.2 mph 2.3 mph 78% 0 in 0 W/m2
02:39 72.1 °F 64.8 °F 29.7 in SW 0.6 mph 2 mph 77.7% 0 in 0 W/m2
02:44 72.3 °F 64.8 °F 29.7 in SW 0.1 mph 2.3 mph 77% 0 in 0 W/m2
02:49 72.3 °F 64.9 °F 29.7 in SW 1.1 mph 3 mph 77.6% 0 in 0 W/m2
02:54 72 °F 64.8 °F 29.7 in SW 1 mph 3.5 mph 78.4% 0 in 0 W/m2
02:59 72 °F 64.8 °F 29.7 in Calm   3 mph 78.3% 0 in 0 W/m2
03:04 71.8 °F 64.9 °F 29.7 in SW 0.4 mph 1.2 mph 79% 0 in 0 W/m2
03:09 71.6 °F 64.9 °F 29.7 in Calm   1 mph 79.8% 0 in 0 W/m2
03:14 71.4 °F 64.9 °F 29.7 in SW 0.3 mph 2.3 mph 80% 0 in 0 W/m2
03:19 71.1 °F 64.8 °F 29.7 in SW 1.7 mph 3 mph 80.4% 0 in 0 W/m2
03:24 70.9 °F 65.1 °F 29.7 in SW 1.6 mph 3.5 mph 81.7% 0 in 0 W/m2
03:29 70.7 °F 65.1 °F 29.7 in SW 2.4 mph 4 mph 82.2% 0 in 0 W/m2
03:34 70.7 °F 64.9 °F 29.7 in SW 2.6 mph 4 mph 82.1% 0 in 0 W/m2
03:39 70.9 °F 64.9 °F 29.7 in SW 2.4 mph 4 mph 81.2% 0 in 0 W/m2
03:44 70.9 °F 64.8 °F 29.7 in SW 2 mph 3.5 mph 81.2% 0 in 0 W/m2
03:49 70.5 °F 64.8 °F 29.7 in SW 1.4 mph 3 mph 82.1% 0 in 0 W/m2
03:54 70.3 °F 64.6 °F 29.7 in WSW 1.9 mph 3.5 mph 82.1% 0 in 0 W/m2
03:59 70.2 °F 64.8 °F 29.7 in WSW 2.4 mph 5 mph 82.7% 0 in 0 W/m2
04:04 70.3 °F 64.4 °F 29.7 in WSW 1.4 mph 5 mph 81.4% 0 in 0 W/m2
04:09 70.5 °F 64.4 °F 29.7 in SW 1.1 mph 2.3 mph 80.9% 0 in 0 W/m2
04:14 70.7 °F 64.2 °F 29.7 in WSW 1.9 mph 3.5 mph 80% 0 in 0 W/m2
04:19 70.7 °F 64.4 °F 29.7 in WSW 2.1 mph 4 mph 80.6% 0 in 0 W/m2
04:23 70.7 °F 64.6 °F 29.7 in WSW 1.9 mph 4 mph 81% 0 in 0 W/m2
04:29 70.7 °F 64.6 °F 29.7 in WSW 1.8 mph 3.5 mph 81.1% 0 in 0 W/m2
04:34 70.7 °F 64.8 °F 29.7 in WSW 2 mph 3.5 mph 81.8% 0 in 0 W/m2
04:39 70.7 °F 64.6 °F 29.7 in West 0.9 mph 3.5 mph 81.4% 0 in 0 W/m2
04:44 70.7 °F 64.6 °F 29.7 in WSW 1.4 mph 2.3 mph 81% 0 in 0 W/m2
04:49 70.7 °F 64.6 °F 29.7 in West 0.9 mph 2.3 mph 81% 0 in 0 W/m2
04:54 70.9 °F 64.8 °F 29.7 in West 0.2 mph 2 mph 81% 0 in 0 W/m2
04:59 70.9 °F 64.9 °F 29.7 in Calm   1 mph 81% 0 in 0 W/m2
05:04 71.1 °F 64.8 °F 29.7 in WSW 1.4 mph 3.5 mph 80.5% 0 in 0 W/m2
05:09 71.1 °F 64.6 °F 29.7 in WSW 1.1 mph 3.5 mph 80% 0 in 0 W/m2
05:14 70.9 °F 64.6 °F 29.7 in WSW 0.1 mph 3 mph 80.6% 0 in 0 W/m2
05:19 70.9 °F 64.9 °F 29.7 in West 0.1 mph 2 mph 81% 0 in 0 W/m2
05:24 71.1 °F 64.8 °F 29.7 in WSW 1 mph 2.3 mph 80.2% 0 in 0 W/m2
05:29 71.1 °F 64.6 °F 29.7 in WSW 0.1 mph 2 mph 80.3% 0 in 0 W/m2
05:34 70.9 °F 64.8 °F 29.7 in Calm   1 mph 81.2% 0 in 0 W/m2
05:39 70.5 °F 64.8 °F 29.7 in WSW 0.5 mph 2.3 mph 82.1% 0 in 0 W/m2
05:44 70.2 °F 64.8 °F 29.7 in WSW 1 mph 2.3 mph 83% 0 in 0 W/m2
05:49 70 °F 64.6 °F 29.7 in WSW 0.4 mph 2.3 mph 83% 0 in 0 W/m2
05:54 69.8 °F 64.4 °F 29.7 in WSW 0.7 mph 2.3 mph 83.2% 0 in 0 W/m2
05:59 69.6 °F 64.2 °F 29.7 in WSW 0.6 mph 2.3 mph 83.2% 0 in 0 W/m2
06:04 69.6 °F 64.6 °F 29.7 in WSW 0.8 mph 2.3 mph 84% 0 in 0 W/m2
06:09 69.6 °F 64.6 °F 29.7 in WSW 0.9 mph 2.3 mph 84% 0 in 0 W/m2
06:14 69.6 °F 64.6 °F 29.7 in WSW 0.1 mph 2 mph 84% 0 in 0 W/m2
06:19 69.8 °F 64.6 °F 29.7 in Calm   1 mph 83.8% 0 in 5 W/m2
06:24 69.6 °F 64.2 °F 29.7 in Calm     83.3% 0 in 9 W/m2
06:29 69.1 °F 64.2 °F 29.7 in Calm     84% 0 in 12 W/m2
06:34 68.9 °F 64.2 °F 29.7 in Calm     84.7% 0 in 12 W/m2
06:39 68.9 °F 64.2 °F 29.7 in Calm     84.8% 0 in 16 W/m2
06:44 69.1 °F 64.4 °F 29.7 in Calm     85% 0 in 19 W/m2
06:49 69.1 °F 64.4 °F 29.7 in SW 1.5 mph 3.5 mph 85% 0 in 19 W/m2
06:54 69.1 °F 64.6 °F 29.7 in SW 1.9 mph 3.5 mph 85.7% 0 in 25 W/m2
06:59 69.3 °F 64.8 °F 29.7 in SW 2.5 mph 4 mph 85.6% 0 in 30 W/m2
07:04 69.4 °F 64.8 °F 29.7 in SW 2.4 mph 4 mph 85% 0 in 33 W/m2
07:09 69.8 °F 64.9 °F 29.7 in SW 2.1 mph 4 mph 84.6% 0 in 32 W/m2
07:14 70 °F 64.9 °F 29.7 in WSW 1.7 mph 3.5 mph 84% 0 in 32 W/m2
07:19 70.2 °F 64.9 °F 29.7 in WSW 1.9 mph 3.5 mph 83.8% 0 in 26 W/m2
07:24 70.3 °F 64.9 °F 29.7 in WSW 1.6 mph 3.5 mph 83% 0 in 35 W/m2
07:29 70.5 °F 65.1 °F 29.7 in SW 2.4 mph 4 mph 83% 0 in 39 W/m2
07:34 70.9 °F 65.1 °F 29.7 in WSW 2.2 mph 4 mph 82.5% 0 in 32 W/m2
07:39 71.1 °F 65.1 °F 29.7 in WSW 1.9 mph 3.5 mph 81.6% 0 in 49 W/m2
07:44 71.1 °F 65.1 °F 29.7 in WSW 2.4 mph 3.5 mph 81.7% 0 in 54 W/m2
07:49 71.1 °F 64.9 °F 29.7 in WSW 1.9 mph 3.5 mph 81% 0 in 67 W/m2
07:54 71.2 °F 65.1 °F 29.7 in WSW 1.2 mph 3 mph 81% 0 in 72 W/m2
07:59 71.2 °F 65.1 °F 29.7 in WSW 0.7 mph 2.3 mph 81% 0 in 83 W/m2
08:04 71.2 °F 65.1 °F 29.7 in WSW 1.4 mph 2.3 mph 81% 0 in 86 W/m2
08:09 71.2 °F 65.1 °F 29.7 in WSW 1.8 mph 3.5 mph 81% 0 in 121 W/m2
08:14 71.4 °F 65.5 °F 29.7 in West 0.7 mph 3 mph 81.5% 0 in 172 W/m2
08:19 71.8 °F 65.3 °F 29.7 in WNW 1.2 mph 3.5 mph 80.1% 0 in 188 W/m2
08:24 72.1 °F 65.1 °F 29.7 in WNW 1.1 mph 4 mph 78.7% 0 in 207 W/m2
08:29 72.5 °F 64.9 °F 29.7 in West 2.6 mph 4 mph 77% 0 in 227 W/m2
08:34 73 °F 65.3 °F 29.7 in West 2.8 mph 5 mph 76.5% 0 in 246 W/m2
08:39 73.4 °F 65.5 °F 29.7 in WNW 3.2 mph 5 mph 76.2% 0 in 260 W/m2
08:44 73.6 °F 65.5 °F 29.7 in WNW 2.7 mph 5 mph 75.7% 0 in 274 W/m2
08:49 73.9 °F 65.8 °F 29.7 in WNW 2.6 mph 5 mph 75.6% 0 in 287 W/m2
08:54 74.3 °F 66 °F 29.7 in WNW 2.6 mph 4 mph 75.2% 0 in 302 W/m2
08:59 74.7 °F 66.4 °F 29.7 in West 2.1 mph 4 mph 75.2% 0 in 318 W/m2
09:04 75 °F 66.4 °F 29.7 in West 2.1 mph 4 mph 74.7% 0 in 330 W/m2
09:09 75.2 °F 66.2 °F 29.7 in WSW 2.3 mph 4 mph 73.6% 0 in 346 W/m2
09:14 75.6 °F 66.2 °F 29.7 in West 2.5 mph 4 mph 72.8% 0 in 360 W/m2
09:19 76.1 °F 66 °F 29.7 in WNW 1.9 mph 4 mph 70.7% 0 in 374 W/m2
09:24 76.6 °F 64.8 °F 29.7 in WNW 0.9 mph 4 mph 66.9% 0 in 388 W/m2
09:29 76.8 °F 65.5 °F 29.7 in West 1.2 mph 4 mph 67.9% 0 in 404 W/m2
09:34 77.5 °F 65.5 °F 29.7 in WNW 1.6 mph 4 mph 66.4% 0 in 417 W/m2
09:39 77.7 °F 66 °F 29.7 in WNW 1.6 mph 3.5 mph 67% 0 in 431 W/m2
09:44 77.7 °F 66.4 °F 29.7 in WSW 1.3 mph 4 mph 68.1% 0 in 438 W/m2
09:49 78.4 °F 66.2 °F 29.7 in WSW 1.4 mph 4 mph 66.3% 0 in 459 W/m2
09:54 78.6 °F 66.6 °F 29.7 in WSW 2.3 mph 4 mph 66.3% 0 in 471 W/m2
09:59 79 °F 66.7 °F 29.7 in WSW 2.2 mph 4 mph 66% 0 in 482 W/m2
10:04 79 °F 67.1 °F 29.7 in West 2.1 mph 5 mph 66.9% 0 in 496 W/m2
10:09 79.5 °F 66.7 °F 29.7 in West 2.3 mph 5 mph 65.3% 0 in 506 W/m2
10:14 79.7 °F 66.2 °F 29.7 in WSW 3.4 mph 7 mph 63.7% 0 in 522 W/m2
10:19 80.1 °F 66 °F 29.7 in WSW 3.5 mph 7 mph 62.4% 0 in 538 W/m2
10:24 80.4 °F 65.5 °F 29.7 in WNW 2.8 mph 6 mph 60.5% 0 in 548 W/m2
10:29 81 °F 65.7 °F 29.7 in West 2.4 mph 6 mph 59.6% 0 in 555 W/m2
10:34 81.3 °F 65.7 °F 29.7 in WNW 3.4 mph 6 mph 58.8% 0 in 568 W/m2
10:39 81.9 °F 65.3 °F 29.7 in West 3.8 mph 6 mph 57.2% 0 in 585 W/m2
10:44 82.2 °F 64.4 °F 29.7 in West 3.9 mph 8 mph 55.1% 0 in 596 W/m2
10:49 82.6 °F 63.5 °F 29.7 in NW 3.6 mph 8.1 mph 52.9% 0 in 613 W/m2
10:54 82.8 °F 62.4 °F 29.7 in WNW 3.7 mph 8 mph 50.3% 0 in 626 W/m2
10:59 82.8 °F 63.1 °F 29.7 in NW 3.7 mph 7 mph 51.8% 0 in 635 W/m2
11:04 83.1 °F 63.5 °F 29.7 in NW 3.5 mph 7 mph 51.7% 0 in 643 W/m2
11:09 83.3 °F 63.7 °F 29.7 in NW 2.5 mph 6 mph 51.7% 0 in 652 W/m2
11:14 83.1 °F 63.5 °F 29.7 in WNW 3.9 mph 7 mph 51.7% 0 in 659 W/m2
11:19 83.7 °F 63.5 °F 29.7 in NW 4.1 mph 8 mph 50.8% 0 in 677 W/m2
11:24 83.8 °F 63.5 °F 29.7 in NW 4.9 mph 8.1 mph 50.6% 0 in 686 W/m2
11:29 84.2 °F 64.4 °F 29.7 in NNW 3.7 mph 8 mph 51.6% 0 in 696 W/m2
11:34 84.6 °F 64 °F 29.7 in NW 4.4 mph 7 mph 50.4% 0 in 707 W/m2
11:39 84.6 °F 64.2 °F 29.7 in NNW 3.1 mph 7 mph 50.8% 0 in 717 W/m2
11:44 84.4 °F 63.7 °F 29.7 in NW 3.2 mph 7 mph 50% 0 in 745 W/m2
11:49 85.1 °F 64.9 °F 29.7 in NW 4.2 mph 8.1 mph 50.9% 0 in 745 W/m2
11:54 85.3 °F 63 °F 29.7 in WNW 4.4 mph 8.1 mph 47.4% 0 in 756 W/m2
11:59 85.3 °F 63.7 °F 29.7 in NNW 3.5 mph 8.1 mph 48.5% 0 in 756 W/m2
12:04 85.6 °F 63.1 °F 29.7 in NW 3.2 mph 8 mph 47.1% 0 in 596 W/m2
12:09 85.1 °F 62.2 °F 29.7 in NW 4.5 mph 8 mph 46.4% 0 in 691 W/m2
12:14 85.8 °F 63.1 °F 29.7 in NW 5.3 mph 12 mph 47% 0 in 654 W/m2
12:19 85.8 °F 62.8 °F 29.7 in NW 4.8 mph 11.5 mph 46.2% 0 in 550 W/m2
12:24 85.5 °F 62.1 °F 29.7 in WNW 4.1 mph 12 mph 45.6% 0 in 515 W/m2
12:29 85.1 °F 62.1 °F 29.7 in WNW 4 mph 9.2 mph 46.1% 0 in 533 W/m2
12:34 85.1 °F 61.9 °F 29.7 in NW 4.3 mph 9 mph 45.8% 0 in 533 W/m2
12:39 84.9 °F 61.9 °F 29.7 in NNW 5.2 mph 10.4 mph 46.2% 0 in 394 W/m2
12:44 85.1 °F 63.1 °F 29.7 in North 3.9 mph 10 mph 47.7% 0 in 385 W/m2
12:49 85.3 °F 63.1 °F 29.7 in NNW 4.2 mph 8.1 mph 47.8% 0 in 376 W/m2
12:54 84.7 °F 61.9 °F 29.7 in NW 4.4 mph 8.1 mph 46.5% 0 in 383 W/m2
12:59 84.2 °F 61.9 °F 29.7 in WNW 2.5 mph 8 mph 47% 0 in 397 W/m2
13:04 84.4 °F 62.2 °F 29.7 in WNW 2.3 mph 6 mph 47.3% 0 in 413 W/m2
13:09 84.4 °F 63.3 °F 29.7 in NE 3 mph 8.1 mph 49.2% 0 in 424 W/m2
13:14 84.2 °F 63.9 °F 29.7 in NE 3.7 mph 8 mph 50.7% 0 in 390 W/m2
13:19 84 °F 63.7 °F 29.7 in ENE 4.8 mph 8.1 mph 50.6% 0 in 371 W/m2
13:24 83.5 °F 63.5 °F 29.7 in East 3.4 mph 8 mph 51.2% 0 in 329 W/m2
13:29 83.5 °F 64.2 °F 29.7 in ENE 2.4 mph 6 mph 52.6% 0 in 309 W/m2
13:34 83.5 °F 64.4 °F 29.7 in ENE 2.1 mph 6 mph 52.9% 0 in 301 W/m2
13:39 83.5 °F 63.5 °F 29.7 in East 3 mph 6 mph 51.2% 0 in 308 W/m2
13:44 83.5 °F 64.6 °F 29.7 in ESE 3.1 mph 5 mph 53.3% 0 in 336 W/m2
13:49 83.1 °F 64.9 °F 29.7 in ESE 2.9 mph 5 mph 54.5% 0 in 369 W/m2
13:54 83.1 °F 64 °F 29.7 in ESE 2.7 mph 4 mph 52.8% 0 in 369 W/m2
13:59 83.1 °F 64 °F 29.7 in ESE 2.6 mph 4 mph 52.8% 0 in 360 W/m2
14:04 83.3 °F 64.2 °F 29.7 in SE 2.2 mph 4 mph 52.6% 0 in 315 W/m2
14:09 83.8 °F 64.2 °F 29.7 in ESE 2.5 mph 5 mph 51.9% 0 in 740 W/m2
14:14 84.6 °F 63.3 °F 29.7 in East 3.8 mph 7 mph 49.1% 0 in 689 W/m2
14:19 84.7 °F 63 °F 29.7 in East 4.7 mph 7 mph 48.1% 0 in 879 W/m2
14:24 85.6 °F 64 °F 29.7 in ENE 3.9 mph 7 mph 48.6% 0 in 853 W/m2
14:29 86.4 °F 63.9 °F 29.7 in NE 3.5 mph 8 mph 47.1% 0 in 824 W/m2
14:34 86.9 °F 64 °F 29.7 in NE 3.6 mph 8.1 mph 46.7% 0 in 812 W/m2
14:39 86.5 °F 63 °F 29.7 in ENE 3 mph 8.1 mph 45.6% 0 in 802 W/m2
14:44 86.4 °F 64 °F 29.7 in ENE 4 mph 8.1 mph 47.6% 0 in 789 W/m2
14:49 86.4 °F 64.6 °F 29.7 in ENE 4.7 mph 8.1 mph 48.3% 0 in 788 W/m2
14:54 86.5 °F 64.8 °F 29.7 in ENE 2.7 mph 8 mph 48.1% 0 in 782 W/m2
14:59 87.1 °F 64.4 °F 29.7 in ENE 4.4 mph 8.1 mph 47.1% 0 in 772 W/m2
15:04 87.1 °F 64.8 °F 29.7 in NNE 5 mph 8.1 mph 47.5% 0 in 768 W/m2
15:09 87.4 °F 64.9 °F 29.7 in North 3 mph 8 mph 47.4% 0 in 765 W/m2
15:14 86.9 °F 64.4 °F 29.7 in East 4 mph 8.1 mph 47% 0 in 756 W/m2
15:19 86.9 °F 64.4 °F 29.7 in NNE 2.2 mph 8 mph 47.4% 0 in 749 W/m2
15:24 87.4 °F 64.4 °F 29.7 in NNE 1.7 mph 7 mph 46.6% 0 in 738 W/m2
15:29 87.4 °F 64.8 °F 29.7 in East 4.6 mph 7 mph 47.3% 0 in 737 W/m2
15:34 86.9 °F 64.9 °F 29.7 in ESE 3.7 mph 7 mph 48.3% 0 in 733 W/m2
15:39 86.9 °F 65.3 °F 29.7 in NE 3.7 mph 7 mph 48.8% 0 in 715 W/m2
15:44 87.1 °F 65.1 °F 29.7 in NE 3.3 mph 7 mph 48.1% 0 in 649 W/m2
15:49 86.5 °F 64 °F 29.7 in ENE 3.4 mph 6 mph 47.1% 0 in 411 W/m2
15:54 86.2 °F 64 °F 29.7 in East 1.6 mph 6 mph 47.8% 0 in 411 W/m2
15:59 86.2 °F 64 °F 29.7 in NE 1.4 mph 5 mph 47.9% 0 in 497 W/m2
16:04 86.5 °F 64.6 °F 29.7 in NE 2.7 mph 6 mph 48.2% 0 in 645 W/m2
16:09 86.7 °F 64.2 °F 29.7 in ENE 2.7 mph 6 mph 47.2% 0 in 752 W/m2
16:14 86.9 °F 65.1 °F 29.7 in SE 2.5 mph 5 mph 48.5% 0 in 768 W/m2
16:19 86.7 °F 65.7 °F 29.7 in ESE 4.2 mph 7 mph 49.7% 0 in 645 W/m2
16:24 86 °F 65.5 °F 29.7 in ESE 3.7 mph 7 mph 50.3% 0 in 578 W/m2
16:29 86.4 °F 65.3 °F 29.7 in ESE 3 mph 6 mph 49.7% 0 in 738 W/m2
16:34 86.5 °F 66 °F 29.7 in ESE 2.8 mph 6 mph 50.6% 0 in 679 W/m2
16:39 87.3 °F 65.7 °F 29.7 in ENE 2.9 mph 5 mph 48.8% 0 in 668 W/m2
16:44 87.4 °F 65.5 °F 29.7 in ESE 3.1 mph 6 mph 48.4% 0 in 626 W/m2
16:49 87.3 °F 65.1 °F 29.7 in ESE 2.4 mph 6 mph 48% 0 in 601 W/m2
16:54 87.1 °F 65.8 °F 29.7 in SE 3.2 mph 7 mph 49.2% 0 in 557 W/m2
16:59 86.9 °F 64.8 °F 29.7 in SE 1.9 mph 7 mph 47.9% 0 in 541 W/m2
17:04 86.9 °F 66.4 °F 29.7 in East 2.4 mph 6 mph 50.5% 0 in 533 W/m2
17:09 86.9 °F 66 °F 29.7 in East 3.2 mph 6 mph 50.1% 0 in 533 W/m2
17:14 86 °F 65.7 °F 29.7 in ESE 4.3 mph 6 mph 50.8% 0 in 250 W/m2
17:19 85.5 °F 66 °F 29.7 in ENE 3 mph 4.6 mph 52.3% 0 in 206 W/m2
17:24 85.8 °F 65.3 °F 29.7 in ENE 2.5 mph 5 mph 50.4% 0 in 281 W/m2
17:29 86.4 °F 65.8 °F 29.7 in ENE 2.7 mph 4 mph 50.7% 0 in 408 W/m2
17:34 86.7 °F 64.6 °F 29.7 in ENE 3 mph 4 mph 47.9% 0 in 561 W/m2
17:39 87.3 °F 65.3 °F 29.7 in NE 3.8 mph 7 mph 48.3% 0 in 374 W/m2
17:44 87.3 °F 65.5 °F 29.7 in NE 3.7 mph 7 mph 48.4% 0 in 318 W/m2
17:49 87.1 °F 65.7 °F 29.7 in NE 3.5 mph 7 mph 49% 0 in 128 W/m2
17:54 87.3 °F 65.3 °F 29.7 in NE 3 mph 7 mph 48.3% 0 in 399 W/m2
17:59 87.4 °F 65.7 °F 29.7 in NNE 2.4 mph 5 mph 48.6% 0 in 392 W/m2
18:04 87.8 °F 65.7 °F 29.7 in ENE 2.7 mph 5 mph 47.9% 0 in 376 W/m2
18:09 87.6 °F 65.5 °F 29.7 in NNE 2.9 mph 5 mph 47.9% 0 in 357 W/m2
18:14 87.8 °F 65.7 °F 29.7 in NNE 2.5 mph 5 mph 47.9% 0 in 334 W/m2
18:19 87.4 °F 65.1 °F 29.7 in NE 1.6 mph 5 mph 47.6% 0 in 315 W/m2
18:24 87.3 °F 65.3 °F 29.7 in ENE 1.2 mph 3.5 mph 48.2% 0 in 297 W/m2
18:29 87.1 °F 65.1 °F 29.7 in NE 1.4 mph 4 mph 48% 0 in 283 W/m2
18:34 87.1 °F 65.7 °F 29.7 in NNE 3.3 mph 5 mph 49.2% 0 in 265 W/m2
18:39 86.9 °F 65.8 °F 29.7 in NE 3.4 mph 5 mph 49.8% 0 in 253 W/m2
18:44 86.9 °F 65.1 °F 29.7 in NE 2.9 mph 5 mph 48.4% 0 in 236 W/m2
18:49 86.7 °F 65.5 °F 29.7 in NE 4 mph 6 mph 49.3% 0 in 221 W/m2
18:54 86.7 °F 65.8 °F 29.6 in NNE 2.6 mph 6 mph 50% 0 in 204 W/m2
18:59 86.5 °F 66 °F 29.6 in NE 3.1 mph 6 mph 50.4% 0 in 185 W/m2
19:04 86.2 °F 65.8 °F 29.6 in NNE 3 mph 5 mph 50.7% 0 in 165 W/m2
19:09 86 °F 66.2 °F 29.6 in NNE 3.3 mph 5 mph 51.9% 0 in 102 W/m2
19:14 85.6 °F 66.6 °F 29.6 in NE 2.9 mph 5 mph 53.2% 0 in 28 W/m2
19:19 85.3 °F 66.7 °F 29.6 in NE 2.4 mph 5 mph 54.2% 0 in 19 W/m2
19:24 84.9 °F 67.3 °F 29.6 in ENE 1 mph 5 mph 55.8% 0 in 19 W/m2
19:29 84.4 °F 67.3 °F 29.6 in NNE 1.4 mph 3.5 mph 56.6% 0 in 21 W/m2
19:34 84.2 °F 66.9 °F 29.7 in NNE 2.1 mph 4 mph 56.3% 0 in 23 W/m2
19:39 84 °F 66.6 °F 29.7 in NE 3.2 mph 4 mph 56% 0 in 23 W/m2
19:44 83.7 °F 66.7 °F 29.7 in NNE 2.2 mph 4 mph 56.7% 0 in 21 W/m2
19:49 83.3 °F 66.7 °F 29.7 in NNE 2.1 mph 3.5 mph 57.2% 0 in 19 W/m2
19:54 83.1 °F 66.7 °F 29.7 in NE 2.9 mph 4 mph 58% 0 in 16 W/m2
19:59 82.9 °F 66.7 °F 29.7 in NE 2.9 mph 5 mph 58.2% 0 in 12 W/m2
20:04 82.9 °F 66.6 °F 29.7 in NE 2.2 mph 5 mph 57.8% 0 in 7 W/m2
20:09 82.8 °F 66.4 °F 29.7 in NE 2.2 mph 4 mph 57.9% 0 in 5 W/m2
20:14 82.6 °F 66.9 °F 29.7 in ENE 1.9 mph 4 mph 59.3% 0 in 0 W/m2
20:19 82.2 °F 66.9 °F 29.7 in ENE 1.6 mph 3.5 mph 59.8% 0 in 0 W/m2
20:24 81.9 °F 67.1 °F 29.7 in ENE 2 mph 3.5 mph 61.2% 0 in 0 W/m2
20:29 81.5 °F 67.3 °F 29.7 in ENE 0.9 mph 3.5 mph 62.2% 0 in 0 W/m2
20:34 81.1 °F 67.5 °F 29.7 in ENE 1.4 mph 3.5 mph 63.2% 0 in 0 W/m2
20:39 80.8 °F 67.3 °F 29.7 in ENE 2.6 mph 5 mph 63.8% 0 in 0 W/m2
20:44 81 °F 66.9 °F 29.7 in ENE 0.7 mph 5 mph 62.3% 0 in 0 W/m2
20:49 81.1 °F 66.6 °F 29.7 in ENE 0.5 mph 3 mph 61.4% 0 in 0 W/m2
20:54 81.1 °F 66.7 °F 29.7 in ENE 1.1 mph 2.3 mph 61.7% 0 in 0 W/m2
20:59 80.8 °F 66.9 °F 29.7 in ENE 1.1 mph 2.3 mph 62.9% 0 in 0 W/m2
21:04 80.2 °F 66.7 °F 29.7 in East 1.6 mph 2.3 mph 63.6% 0 in 0 W/m2
21:09 80.1 °F 67.3 °F 29.7 in East 1.3 mph 2.3 mph 65.3% 0 in 0 W/m2
21:14 79.9 °F 67.1 °F 29.7 in East 0.1 mph 2 mph 65.2% 0 in 0 W/m2
21:19 79.9 °F 67.1 °F 29.7 in ESE 1 mph 2.3 mph 65% 0 in 0 W/m2
21:24 80.1 °F 67.3 °F 29.7 in SSE 1.1 mph 2.3 mph 65.2% 0 in 0 W/m2
21:29 80.1 °F 67.5 °F 29.7 in SE 1.2 mph 3.5 mph 65.6% 0 in 0 W/m2
21:34 79.9 °F 66.9 °F 29.7 in ESE 2.8 mph 5 mph 65% 0 in 0 W/m2
21:39 79.7 °F 66.6 °F 29.7 in ESE 2.6 mph 5 mph 64.4% 0 in 0 W/m2
21:44 79.9 °F 66.6 °F 29.7 in East 2.7 mph 5 mph 64% 0 in 0 W/m2
21:49 80.2 °F 66.6 °F 29.7 in East 2.1 mph 5 mph 62.8% 0 in 0 W/m2
21:54 80.2 °F 66.7 °F 29.7 in ESE 2.4 mph 5 mph 63.8% 0 in 0 W/m2
21:59 79.7 °F 66.7 °F 29.7 in East 2 mph 5 mph 64.4% 0 in 0 W/m2
22:04 79.5 °F 67.1 °F 29.7 in ESE 1.4 mph 5 mph 66% 0 in 0 W/m2
22:09 79.3 °F 67.3 °F 29.7 in SSE 0.9 mph 3.5 mph 66.8% 0 in 0 W/m2
22:14 79.3 °F 67.5 °F 29.7 in SSE 1 mph 3.5 mph 66.9% 0 in 0 W/m2
22:19 79.5 °F 67.1 °F 29.7 in SSW 1.2 mph 3 mph 66.1% 0 in 0 W/m2
22:24 79.3 °F 67.1 °F 29.7 in SW 1.4 mph 2.3 mph 66.3% 0 in 0 W/m2
22:29 79.2 °F 67.1 °F 29.7 in WSW 2.2 mph 5 mph 66.5% 0 in 0 W/m2
22:34 78.8 °F 67.3 °F 29.7 in WNW 7 mph 22 mph 68% 0 in 0 W/m2
22:39 78.3 °F 65.5 °F 29.7 in NW 11.7 mph 22 mph 64.9% 0 in 0 W/m2
22:44 77.4 °F 63.9 °F 29.7 in NNW 11.5 mph 21 mph 63.2% 0 in 0 W/m2
22:49 76.5 °F 63.7 °F 29.7 in NNW 9.9 mph 18.4 mph 64.8% 0 in 0 W/m2
22:54 75.6 °F 64 °F 29.7 in NNW 7.5 mph 18 mph 67.4% 0 in 0 W/m2
22:59 74.8 °F 64 °F 29.7 in North 5.4 mph 15 mph 69.4% 0 in 0 W/m2
23:04 74.5 °F 64 °F 29.7 in North 4.5 mph 10 mph 70.2% 0 in 0 W/m2
23:09 74.3 °F 64 °F 29.7 in NNW 4.5 mph 9 mph 70.7% 0 in 0 W/m2
23:14 74.1 °F 64.2 °F 29.7 in NNW 4.7 mph 9.2 mph 71% 0 in 0 W/m2
23:19 74.1 °F 64.2 °F 29.7 in NNW 4.4 mph 7 mph 71.2% 0 in 0 W/m2
23:24 74.1 °F 64.4 °F 29.7 in NW 3.8 mph 7 mph 71.7% 0 in 0 W/m2
23:29 74.1 °F 64.6 °F 29.7 in NNW 3.4 mph 7 mph 72% 0 in 0 W/m2
23:34 74.1 °F 64.8 °F 29.7 in North 2.5 mph 7 mph 72.9% 0 in 0 W/m2
23:39 73.9 °F 64.9 °F 29.7 in NNE 1.6 mph 5 mph 73.3% 0 in 0 W/m2
23:44 73.9 °F 64.9 °F 29.7 in North 0.2 mph 4 mph 73.2% 0 in 0 W/m2
23:49 73.8 °F 64.9 °F 29.7 in ENE 1.8 mph 6 mph 73.8% 0 in 0 W/m2
23:54 73.4 °F 64.9 °F 29.7 in ENE 4.1 mph 7 mph 74.8% 0 in 0 W/m2
23:59 72.9 °F 64.9 °F 29.7 in ENE 5.6 mph 9.2 mph 76.1% 0 in 0 W/m2
Stazione Meteorologica MeteoMincio Rivalta s/M (MN)
Con i complimenti di Weather Underground - 4 mb


GLOSSARIO METEOROLOGICO
Nubifragio
Precipitazione estremamente violenta di carattere temporalesco, che in breve tempo rovescia al suolo grandi quantità di acqua, producendo ingrossamento e straripamento dei corsi d'acqua, allagamenti e frane. Secondo certi autori si può parlare di nubifragi soltanto se la durata è di almeno mezz'ora e l'intensità di precipitazione di almeno 40 mm in mezz'ora, di 60 in un'ora, di 70 in due ore, di 80 in tre ore (BILANCINI).

Do NOT follow this link or you will be banned from the site!